Time;durP1;ratioP1;P1;durP2;ratioP2;P2;SDS_P1;SDS_P2;PMS_P1;PMS_P2;Temp;Humidity;BMP_temperature;BMP_pressure;BME280_temperature;BME280_humidity;BME280_pressure;Samples;Min_cycle;Max_cycle;Signal;HPM_P1;HPM_P2
2022/02/14 00:00:22;;;;;;;3.85;2.20;;;;;;;0.17;51.19;99806.31;5068977;28;20081;-61
2022/02/14 00:02:48;;;;;;;4.18;2.20;;;;;;;0.13;51.49;99799.44;5069128;28;20055;-61
2022/02/14 00:05:14;;;;;;;4.93;2.60;;;;;;;0.14;50.19;99805.38;5067774;28;20020;-61
2022/02/14 00:07:40;;;;;;;4.38;2.67;;;;;;;0.13;51.91;99804.53;5064910;28;20052;-61
2022/02/14 00:10:07;;;;;;;8.43;2.10;;;;;;;0.10;49.97;99793.41;5064778;28;20056;-61
2022/02/14 00:12:34;;;;;;;3.55;2.25;;;;;;;0.06;49.38;99792.50;5068781;28;20318;-61
2022/02/14 00:15:01;;;;;;;4.80;2.10;;;;;;;0.09;50.98;99784.06;5068898;28;20374;-61
2022/02/14 00:17:27;;;;;;;4.47;2.40;;;;;;;-0.02;50.49;99789.75;5068907;28;20044;-61
2022/02/14 00:19:52;;;;;;;3.28;2.22;;;;;;;0.07;50.70;99773.84;5066078;28;20017;-61
2022/02/14 00:22:21;;;;;;;4.13;2.30;;;;;;;0.09;52.79;99781.53;5065731;28;20039;-60
2022/02/14 00:24:52;;;;;;;4.10;2.17;;;;;;;0.03;52.69;99776.28;5065594;28;20084;-60
2022/02/14 00:27:19;;;;;;;3.72;2.22;;;;;;;0.08;52.09;99775.53;5065936;28;20032;-60
2022/02/14 00:29:45;;;;;;;6.53;2.90;;;;;;;0.11;51.10;99785.78;5065811;28;20052;-59
2022/02/14 00:32:11;;;;;;;3.45;2.10;;;;;;;0.02;50.40;99789.84;5065371;28;20148;-60
2022/02/14 00:34:37;;;;;;;5.20;2.50;;;;;;;0.06;50.77;99791.59;5065318;28;20038;-59
2022/02/14 00:37:04;;;;;;;3.67;2.15;;;;;;;0.00;51.74;99779.63;5065248;28;20074;-60
2022/02/14 00:39:29;;;;;;;4.00;1.90;;;;;;;0.07;51.08;99771.31;5065287;28;20039;-59
2022/02/14 00:41:55;;;;;;;4.40;2.13;;;;;;;0.03;50.74;99774.59;5064269;28;20021;-60
2022/02/14 00:44:20;;;;;;;2.78;2.05;;;;;;;0.01;51.40;99776.22;5065297;28;20024;-59
2022/02/14 00:46:46;;;;;;;5.20;2.20;;;;;;;-0.01;51.61;99760.94;5063697;28;20029;-59
2022/02/14 00:49:11;;;;;;;5.05;2.17;;;;;;;0.06;51.44;99766.16;5065316;28;20322;-59
2022/02/14 00:51:37;;;;;;;4.78;2.20;;;;;;;-0.01;51.10;99757.53;5065249;28;20051;-59
2022/02/14 00:54:03;;;;;;;4.82;2.60;;;;;;;-0.05;51.79;99769.31;5065331;28;20029;-59
2022/02/14 00:56:29;;;;;;;3.30;2.30;;;;;;;-0.10;50.92;99758.19;5064952;28;20021;-59
2022/02/14 00:58:54;;;;;;;4.15;2.35;;;;;;;-0.11;50.84;99765.78;5064905;28;20098;-60
2022/02/14 01:01:20;;;;;;;7.88;2.20;;;;;;;-0.05;51.56;99753.19;5064663;28;20021;-61
2022/02/14 01:03:46;;;;;;;5.85;2.70;;;;;;;-0.04;52.11;99752.38;5065045;28;20043;-60
2022/02/14 01:06:12;;;;;;;5.13;2.88;;;;;;;-0.17;49.97;99733.44;5064739;28;20020;-61
2022/02/14 01:08:37;;;;;;;4.38;2.38;;;;;;;-0.02;52.41;99748.16;5061306;28;20070;-61
2022/02/14 01:11:03;;;;;;;5.32;2.38;;;;;;;-0.18;50.72;99740.19;5063476;28;20017;-61
2022/02/14 01:13:28;;;;;;;3.13;1.92;;;;;;;-0.02;51.38;99738.00;5064749;28;20036;-60
2022/02/14 01:15:54;;;;;;;4.60;2.85;;;;;;;-0.01;53.15;99745.66;5063464;28;20071;-59
2022/02/14 01:18:19;;;;;;;4.68;2.78;;;;;;;-0.06;50.41;99746.38;5064771;28;20025;-59
2022/02/14 01:20:45;;;;;;;4.10;2.35;;;;;;;-0.18;51.65;99718.97;5064487;28;20021;-59
2022/02/14 01:23:11;;;;;;;3.95;2.10;;;;;;;-0.26;52.94;99693.34;5064323;28;20061;-59
2022/02/14 01:25:36;;;;;;;3.35;2.08;;;;;;;-0.02;51.27;99733.75;5064478;28;20032;-59
2022/02/14 01:28:02;;;;;;;4.25;2.38;;;;;;;0.03;52.31;99731.31;5064301;28;20021;-60
2022/02/14 01:30:27;;;;;;;3.95;2.20;;;;;;;-0.21;52.07;99709.59;5063857;28;20074;-59
2022/02/14 01:32:53;;;;;;;4.13;2.40;;;;;;;-0.13;52.35;99719.91;5063901;28;20075;-60
2022/02/14 01:35:18;;;;;;;3.25;2.15;;;;;;;-0.06;52.40;99714.16;5068642;28;20066;-60
2022/02/14 01:37:44;;;;;;;7.28;2.53;;;;;;;-0.18;50.87;99718.97;5064423;28;20059;-60
2022/02/14 01:40:12;;;;;;;4.90;2.20;;;;;;;-0.09;52.58;99715.78;5064439;28;20033;-59
2022/02/14 01:42:38;;;;;;;3.35;2.13;;;;;;;-0.08;50.99;99712.41;5063606;28;20079;-60
2022/02/14 01:45:04;;;;;;;5.15;2.38;;;;;;;-0.11;50.93;99722.53;5062846;28;20021;-59
2022/02/14 01:47:30;;;;;;;4.10;2.17;;;;;;;-0.20;51.32;99697.72;5063856;28;20376;-59
2022/02/14 01:49:58;;;;;;;4.63;2.13;;;;;;;-0.15;50.95;99708.84;5062976;28;20024;-61
2022/02/14 01:52:25;;;;;;;3.47;2.00;;;;;;;-0.27;52.30;99711.13;5062772;28;20024;-61
2022/02/14 01:54:51;;;;;;;4.78;2.42;;;;;;;-0.13;52.29;99707.19;5063872;28;20023;-61
2022/02/14 01:57:18;;;;;;;3.70;2.05;;;;;;;-0.29;51.08;99692.44;5063796;28;20032;-59
2022/02/14 01:59:44;;;;;;;4.38;2.55;;;;;;;-0.15;51.88;99688.50;5063609;28;20055;-59
2022/02/14 02:02:11;;;;;;;4.20;2.17;;;;;;;-0.19;51.95;99685.00;5063619;28;20203;-59
2022/02/14 02:04:37;;;;;;;3.60;2.08;;;;;;;-0.19;53.15;99690.09;5063836;28;20052;-60
2022/02/14 02:07:04;;;;;;;4.68;2.03;;;;;;;-0.39;52.83;99679.47;5063728;28;20045;-60
2022/02/14 02:09:30;;;;;;;4.05;2.22;;;;;;;-0.36;53.01;99665.97;5062499;28;20028;-59
2022/02/14 02:14:41;;;;;;;6.07;2.05;;;;;;;-0.24;52.30;99684.06;5063585;28;20032;-61
2022/02/14 02:17:07;;;;;;;3.53;2.22;;;;;;;-0.20;54.20;99667.16;5063447;28;20332;-60
2022/02/14 02:19:32;;;;;;;3.28;2.05;;;;;;;-0.20;53.21;99688.41;5063561;28;20028;-61
2022/02/14 02:21:58;;;;;;;4.60;2.40;;;;;;;-0.15;54.63;99675.78;5063501;28;20024;-61
2022/02/14 02:24:24;;;;;;;2.55;1.60;;;;;;;-0.28;53.00;99674.66;5063080;28;20041;-61
2022/02/14 02:26:57;;;;;;;2.63;2.15;;;;;;;-0.60;54.88;99628.13;5063634;28;20021;-60
2022/02/14 02:29:23;;;;;;;3.80;2.47;;;;;;;-0.26;54.83;99669.59;5063356;28;20039;-60
2022/02/14 02:31:48;;;;;;;3.53;2.08;;;;;;;-0.30;53.41;99668.69;5063392;28;20029;-61
2022/02/14 02:34:14;;;;;;;4.15;1.88;;;;;;;-0.22;52.70;99679.00;5063311;28;20028;-60
2022/02/14 02:36:54;;;;;;;5.40;2.38;;;;;;;-0.74;53.44;99637.97;5063087;28;20025;-60
2022/02/14 02:39:21;;;;;;;3.60;2.30;;;;;;;-0.53;55.25;99674.09;5074863;28;20040;-61
2022/02/14 02:41:46;;;;;;;5.38;2.13;;;;;;;-0.37;54.57;99672.75;5062522;28;20033;-59
2022/02/14 02:44:13;;;;;;;3.80;2.10;;;;;;;-0.37;54.41;99679.50;5062934;28;20097;-59
2022/02/14 02:46:39;;;;;;;3.33;2.30;;;;;;;-0.34;55.27;99671.97;5062927;28;20033;-59
2022/02/14 02:49:19;;;;;;;6.00;2.58;;;;;;;-0.81;54.12;99596.31;5063012;28;20333;-58
2022/02/14 02:51:48;;;;;;;4.32;1.92;;;;;;;-0.46;54.03;99661.53;5061843;28;20221;-59
2022/02/14 02:54:14;;;;;;;4.10;2.30;;;;;;;-0.41;54.40;99673.50;5061868;28;20047;-59
2022/02/14 02:56:43;;;;;;;5.03;2.47;;;;;;;-0.76;54.92;99604.03;5062824;28;20024;-59
2022/02/14 02:59:09;;;;;;;4.10;2.20;;;;;;;-0.47;54.23;99647.06;5062520;28;20087;-59
2022/02/14 03:01:36;;;;;;;3.67;2.28;;;;;;;-0.47;55.87;99663.22;5062519;28;20041;-59
2022/02/14 03:04:03;;;;;;;5.50;2.47;;;;;;;-0.45;54.83;99658.16;5063058;28;20043;-59
2022/02/14 03:06:29;;;;;;;3.90;2.55;;;;;;;-0.47;55.54;99653.03;5062686;28;20066;-59
2022/02/14 03:08:55;;;;;;;4.88;2.22;;;;;;;-0.38;56.00;99652.38;5048757;28;20026;-59
2022/02/14 03:11:21;;;;;;;4.25;2.17;;;;;;;-0.26;56.34;99656.88;5059937;28;20210;-60
2022/02/14 03:13:48;;;;;;;3.42;2.30;;;;;;;-0.29;55.73;99647.47;5062814;28;20037;-59
2022/02/14 03:16:14;;;;;;;3.75;2.15;;;;;;;-0.27;55.75;99628.03;5062629;28;20199;-58
2022/02/14 03:18:40;;;;;;;3.85;2.17;;;;;;;-0.26;55.27;99637.34;5062729;28;20033;-59
2022/02/14 03:21:06;;;;;;;3.53;2.20;;;;;;;-0.33;55.10;99632.97;5062754;28;20230;-57
2022/02/14 03:23:32;;;;;;;3.83;2.17;;;;;;;-0.38;55.22;99624.41;5062490;28;20374;-58
2022/02/14 03:25:58;;;;;;;3.63;2.33;;;;;;;-0.36;54.78;99621.06;5062552;28;20025;-57
2022/02/14 03:28:24;;;;;;;5.15;2.30;;;;;;;-0.28;56.23;99623.75;5062498;28;20098;-58
2022/02/14 03:30:49;;;;;;;3.95;2.25;;;;;;;-0.37;56.55;99621.88;5062709;28;20025;-58
2022/02/14 03:33:15;;;;;;;4.32;2.13;;;;;;;-0.36;56.72;99618.53;5062570;28;20313;-58
2022/02/14 03:35:41;;;;;;;4.85;2.45;;;;;;;-0.36;56.53;99627.81;5061112;28;20021;-58
2022/02/14 03:38:06;;;;;;;3.60;1.95;;;;;;;-0.39;55.88;99620.97;5062393;28;20021;-58
2022/02/14 03:40:36;;;;;;;3.60;1.92;;;;;;;-0.38;57.50;99626.94;5062424;28;20016;-59
2022/02/14 03:43:03;;;;;;;3.70;2.60;;;;;;;-0.39;56.48;99620.97;5062484;28;20070;-59
2022/02/14 03:45:30;;;;;;;5.38;2.90;;;;;;;-0.32;57.59;99621.13;5062260;28;20118;-59
2022/02/14 03:47:56;;;;;;;3.38;2.33;;;;;;;-0.38;56.54;99627.78;5062188;28;20314;-59
2022/02/14 03:50:22;;;;;;;3.70;2.50;;;;;;;-0.51;57.64;99620.72;5062213;28;20021;-59
2022/02/14 03:52:47;;;;;;;5.47;2.47;;;;;;;-0.43;56.12;99609.03;5062384;28;20097;-59
2022/02/14 03:55:13;;;;;;;5.40;2.30;;;;;;;-0.49;56.48;99597.88;5064420;28;20044;-59
2022/02/14 03:57:39;;;;;;;5.30;2.10;;;;;;;-0.46;57.68;99600.47;5066204;28;20055;-59
2022/02/14 04:00:10;;;;;;;5.78;2.80;;;;;;;-0.53;57.04;99648.66;5065498;28;20036;-59
2022/02/14 04:02:36;;;;;;;;;;;;;;;-0.40;57.75;99614.19;5066363;28;20037;-59
2022/02/14 04:05:02;;;;;;;5.13;2.25;;;;;;;-0.37;58.13;99621.00;5065798;28;19912;-59
2022/02/14 04:07:29;;;;;;;4.22;2.53;;;;;;;-0.39;58.59;99622.66;5063291;28;20021;-58
2022/02/14 04:09:55;;;;;;;4.40;1.90;;;;;;;-0.41;57.33;99617.56;5061490;28;20028;-59
2022/02/14 04:12:20;;;;;;;3.10;2.10;;;;;;;-0.39;58.38;99615.03;5065715;28;20032;-59
2022/02/14 04:14:46;;;;;;;3.85;2.70;;;;;;;-0.43;58.05;99596.31;5065667;28;20037;-59
2022/02/14 04:17:11;;;;;;;3.95;2.55;;;;;;;-0.47;58.16;99599.63;5065540;28;20028;-60
2022/02/14 04:19:37;;;;;;;5.05;2.15;;;;;;;-0.36;58.02;99615.97;5056613;28;20091;-59
2022/02/14 04:22:03;;;;;;;3.88;2.83;;;;;;;-0.27;58.42;99619.53;5065876;28;20128;-60
2022/02/14 04:24:29;;;;;;;3.45;2.30;;;;;;;-0.32;59.00;99609.25;5065088;28;20374;-60
2022/02/14 04:26:54;;;;;;;5.55;2.40;;;;;;;-0.36;58.34;99625.28;5065633;28;20028;-60
2022/02/14 04:29:20;;;;;;;2.55;2.17;;;;;;;-0.44;57.20;99625.13;5064943;28;20040;-60
2022/02/14 04:31:46;;;;;;;3.78;2.17;;;;;;;-0.54;56.92;99625.75;5065402;28;20207;-60
2022/02/14 04:34:12;;;;;;;5.88;2.30;;;;;;;-0.54;57.53;99623.22;5065284;28;20032;-60
2022/02/14 04:36:38;;;;;;;5.30;2.38;;;;;;;-0.30;58.84;99630.50;5065180;28;20383;-59
2022/02/14 04:39:04;;;;;;;4.20;2.28;;;;;;;-0.50;57.30;99622.41;5064925;28;20056;-59
2022/02/14 04:41:30;;;;;;;5.50;2.53;;;;;;;-0.49;59.26;99608.88;5065084;28;20071;-59
2022/02/14 04:43:55;;;;;;;8.13;2.90;;;;;;;-0.65;56.92;99607.69;5065169;28;20365;-59
2022/02/14 04:46:21;;;;;;;4.72;2.53;;;;;;;-0.53;57.12;99602.88;5064922;28;20060;-59
2022/02/14 04:48:46;;;;;;;5.10;2.40;;;;;;;-0.52;58.44;99599.50;5064786;28;20212;-59
2022/02/14 04:51:12;;;;;;;5.20;2.35;;;;;;;-0.41;57.52;99594.66;5064982;28;20326;-59
2022/02/14 04:53:38;;;;;;;4.20;2.65;;;;;;;-0.44;57.54;99608.97;5064851;28;20028;-59
2022/02/14 04:56:04;;;;;;;3.25;2.20;;;;;;;-0.52;58.27;99599.50;5064473;28;20341;-58
2022/02/14 04:58:29;;;;;;;3.95;2.60;;;;;;;-0.37;59.43;99603.19;5064292;28;20041;-57
2022/02/14 05:00:55;;;;;;;4.13;2.53;;;;;;;-0.31;59.17;99602.47;5063485;28;20025;-60
2022/02/14 05:03:20;;;;;;;4.55;2.38;;;;;;;-0.25;58.86;99603.47;5064628;28;20037;-62
2022/02/14 05:05:46;;;;;;;4.82;2.60;;;;;;;-0.30;58.50;99605.06;5064254;28;20218;-60
2022/02/14 05:08:12;;;;;;;4.97;2.40;;;;;;;-0.46;59.26;99593.69;5053023;28;20017;-60
2022/02/14 05:10:37;;;;;;;4.38;2.83;;;;;;;-0.41;58.02;99606.53;5062457;28;20148;-61
2022/02/14 05:13:03;;;;;;;4.07;2.40;;;;;;;-0.56;58.11;99600.25;5064661;28;20131;-61
2022/02/14 05:15:29;;;;;;;4.72;2.30;;;;;;;-0.48;57.65;99609.75;5064051;28;20025;-62
2022/02/14 05:17:54;;;;;;;5.22;2.70;;;;;;;-0.34;59.33;99613.47;5064638;28;20112;-61
2022/02/14 05:20:20;;;;;;;3.85;2.53;;;;;;;-0.32;58.64;99611.78;5065027;28;20029;-61
2022/02/14 05:22:45;;;;;;;4.45;2.70;;;;;;;-0.35;59.24;99609.19;5063862;28;20024;-63
2022/02/14 05:25:11;;;;;;;6.55;2.70;;;;;;;-0.28;57.85;99615.28;5064226;28;20067;-60
2022/02/14 05:27:37;;;;;;;4.93;2.67;;;;;;;-0.47;58.99;99607.25;5063365;28;20032;-60
2022/02/14 05:30:06;;;;;;;5.32;2.33;;;;;;;-0.34;58.10;99605.81;5063360;28;20025;-60
2022/02/14 05:32:32;;;;;;;3.25;2.50;;;;;;;-0.30;58.90;99612.72;5062193;28;20021;-60
2022/02/14 05:34:58;;;;;;;5.15;2.72;;;;;;;-0.41;57.99;99616.69;5062887;28;20036;-60
2022/02/14 05:37:24;;;;;;;3.90;2.65;;;;;;;-0.29;60.08;99608.47;5062140;28;20031;-61
2022/02/14 05:39:50;;;;;;;5.47;2.53;;;;;;;-0.21;59.93;99612.88;5063304;28;20029;-62
2022/02/14 05:42:17;;;;;;;4.15;2.15;;;;;;;-0.20;59.53;99608.63;5063482;28;20025;-61
2022/02/14 05:44:43;;;;;;;6.85;2.83;;;;;;;-0.37;59.17;99603.19;5063704;28;20044;-60
2022/02/14 05:47:09;;;;;;;5.07;2.70;;;;;;;-0.33;58.21;99606.69;5063691;28;20028;-61
2022/02/14 05:49:35;;;;;;;5.55;2.72;;;;;;;-0.26;57.87;99604.28;5063936;28;20025;-60
2022/02/14 05:52:01;;;;;;;4.75;2.40;;;;;;;-0.19;58.61;99601.03;5062185;28;20101;-60
2022/02/14 05:54:26;;;;;;;3.53;2.55;;;;;;;-0.09;58.56;99604.63;5062743;28;20252;-60
2022/02/14 05:56:52;;;;;;;3.90;2.55;;;;;;;-0.07;59.40;99605.53;5063879;28;20051;-61
2022/02/14 05:59:17;;;;;;;4.43;2.83;;;;;;;-0.21;59.11;99599.31;5063654;28;20097;-60
2022/02/14 06:01:43;;;;;;;6.05;2.83;;;;;;;-0.35;59.89;99604.09;5063749;28;20225;-61
2022/02/14 06:04:09;;;;;;;5.75;2.80;;;;;;;-0.16;59.13;99602.78;5063640;28;20220;-61
2022/02/14 06:06:35;;;;;;;4.22;2.70;;;;;;;-0.26;58.67;99599.19;5063554;28;20278;-61
2022/02/14 06:09:02;;;;;;;6.97;3.25;;;;;;;-0.31;59.68;99608.44;5062417;28;20092;-60
2022/02/14 06:11:28;;;;;;;4.97;2.67;;;;;;;-0.41;59.05;99606.53;5063176;28;20611;-60
2022/02/14 06:13:53;;;;;;;6.05;2.88;;;;;;;-0.29;58.85;99618.63;5063476;28;20024;-61
2022/02/14 06:16:19;;;;;;;4.10;2.92;;;;;;;-0.12;59.83;99614.75;5063384;28;20072;-61
2022/02/14 06:18:44;;;;;;;8.13;2.90;;;;;;;-0.32;59.48;99606.72;5062704;28;20043;-61
2022/02/14 06:21:10;;;;;;;7.28;3.50;;;;;;;-0.30;58.89;99619.47;5063284;28;20261;-60
2022/02/14 06:23:36;;;;;;;6.03;2.65;;;;;;;-0.22;59.68;99618.78;5062664;28;20319;-60
2022/02/14 06:26:02;;;;;;;6.53;3.42;;;;;;;-0.16;59.18;99629.94;5062964;28;20051;-58
2022/02/14 06:28:28;;;;;;;27.05;12.52;;;;;;;-0.16;59.36;99612.13;5062925;28;20041;-60
2022/02/14 06:30:54;;;;;;;6.25;3.10;;;;;;;-0.14;58.25;99621.50;5063049;28;20038;-60
2022/02/14 06:33:19;;;;;;;6.15;2.88;;;;;;;-0.05;60.22;99626.78;5063164;28;20024;-60
2022/02/14 06:35:45;;;;;;;5.65;3.38;;;;;;;-0.01;59.73;99623.47;5063009;28;20036;-61
2022/02/14 06:38:10;;;;;;;7.05;3.13;;;;;;;-0.06;59.05;99620.00;5063058;28;20045;-59
2022/02/14 06:40:36;;;;;;;4.53;2.92;;;;;;;0.05;58.61;99630.38;5063005;28;20025;-59
2022/02/14 06:43:02;;;;;;;5.32;2.83;;;;;;;-0.18;58.61;99627.38;5062610;28;20036;-60
2022/02/14 06:45:27;;;;;;;8.65;3.47;;;;;;;-0.09;58.77;99629.25;5062843;28;20029;-59
2022/02/14 06:47:53;;;;;;;20.25;9.95;;;;;;;-0.16;60.46;99625.69;5063006;28;20032;-59
2022/02/14 06:50:19;;;;;;;5.85;3.25;;;;;;;-0.15;58.93;99624.88;5062745;28;20344;-59
2022/02/14 06:52:46;;;;;;;5.38;3.08;;;;;;;-0.02;59.96;99626.84;5062515;28;20021;-61
2022/02/14 06:55:12;;;;;;;3.67;2.70;;;;;;;-0.03;59.08;99625.13;5062555;28;20290;-59
2022/02/14 06:57:38;;;;;;;4.80;2.67;;;;;;;0.14;59.72;99617.84;5062304;28;20325;-60
2022/02/14 07:00:08;;;;;;;5.25;3.15;;;;;;;-0.13;59.63;99551.94;5062086;28;20074;-60
2022/02/14 07:02:35;;;;;;;4.68;3.25;;;;;;;0.14;58.74;99610.19;5061019;28;20045;-60
2022/02/14 07:05:01;;;;;;;5.85;3.10;;;;;;;0.15;59.95;99599.16;5062530;28;20313;-60
2022/02/14 07:07:26;;;;;;;5.50;2.95;;;;;;;0.17;59.56;99617.00;5060994;28;20086;-59
2022/02/14 07:09:52;;;;;;;5.85;3.30;;;;;;;-0.18;59.63;99614.63;5062383;28;20060;-60
2022/02/14 07:12:17;;;;;;;5.60;3.15;;;;;;;0.01;59.55;99608.22;5062253;28;20025;-61
2022/02/14 07:14:43;;;;;;;5.10;2.85;;;;;;;-0.10;59.22;99607.16;5062810;28;20033;-60
2022/02/14 07:17:09;;;;;;;5.45;3.13;;;;;;;0.13;59.77;99615.28;5062410;28;20045;-59
2022/02/14 07:19:34;;;;;;;5.55;3.20;;;;;;;-0.01;59.54;99605.66;5062392;28;20036;-60
2022/02/14 07:22:00;;;;;;;6.18;3.38;;;;;;;0.20;59.42;99612.00;5062385;28;20249;-60
2022/02/14 07:24:26;;;;;;;9.32;3.65;;;;;;;0.59;59.53;99605.06;5062186;28;20036;-59
2022/02/14 07:26:51;;;;;;;4.30;3.15;;;;;;;1.03;58.62;99608.34;5062278;28;20213;-59
2022/02/14 07:29:17;;;;;;;7.82;3.80;;;;;;;1.36;58.18;99612.22;5064588;28;20025;-59
2022/02/14 07:31:43;;;;;;;10.02;5.68;;;;;;;1.61;57.12;99604.06;5066194;28;20024;-59
2022/02/14 07:34:08;;;;;;;7.43;3.90;;;;;;;2.13;55.76;99593.66;5064860;28;20025;-59
2022/02/14 07:36:34;;;;;;;10.45;3.70;;;;;;;2.01;55.26;99596.91;5065989;28;20321;-59
2022/02/14 07:39:00;;;;;;;6.25;3.20;;;;;;;2.01;55.32;99591.81;5063651;28;20314;-59
2022/02/14 07:41:26;;;;;;;7.22;4.28;;;;;;;1.86;55.64;99597.59;5066498;28;20217;-59
2022/02/14 07:43:52;;;;;;;9.10;4.10;;;;;;;1.57;56.25;99595.53;5065379;28;20033;-60
2022/02/14 07:46:20;;;;;;;4.57;3.50;;;;;;;1.00;57.28;99597.25;5065593;28;20037;-59
2022/02/14 07:48:46;;;;;;;5.07;3.42;;;;;;;1.22;58.68;99595.03;5065530;28;20051;-59
2022/02/14 07:51:16;;;;;;;6.32;3.55;;;;;;;1.25;57.47;99598.47;5065615;28;20028;-58
2022/02/14 07:53:42;;;;;;;5.55;3.75;;;;;;;1.12;58.08;99592.31;5065431;28;20032;-60
2022/02/14 07:56:12;;;;;;;7.90;3.75;;;;;;;0.94;58.59;99605.66;5065848;28;20059;-59
2022/02/14 07:58:39;;;;;;;7.70;3.83;;;;;;;1.17;59.52;99603.47;5065663;28;20033;-59
2022/02/14 08:01:04;;;;;;;9.73;4.38;;;;;;;1.03;57.83;99592.19;5065661;28;20064;-59
2022/02/14 08:03:31;;;;;;;7.80;3.65;;;;;;;1.20;58.33;99606.06;5065296;28;20055;-59
2022/02/14 08:05:57;;;;;;;8.35;3.80;;;;;;;1.17;57.86;99600.06;5065242;28;20252;-59
2022/02/14 08:08:23;;;;;;;6.25;4.15;;;;;;;1.31;57.57;99608.78;5067055;28;20024;-59
2022/02/14 08:10:48;;;;;;;7.25;4.68;;;;;;;1.35;58.04;99608.00;5065156;28;20020;-59
2022/02/14 08:13:14;;;;;;;6.88;4.20;;;;;;;1.70;57.09;99610.16;5063949;28;20213;-59
2022/02/14 08:15:39;;;;;;;6.88;4.13;;;;;;;2.13;56.77;99609.81;5065235;28;20036;-59
2022/02/14 08:18:07;;;;;;;6.10;3.72;;;;;;;2.21;57.07;99607.38;5065305;28;20032;-59
2022/02/14 08:20:34;;;;;;;8.18;4.03;;;;;;;2.43;55.51;99595.69;5065380;28;20033;-60
2022/02/14 08:23:00;;;;;;;7.70;4.45;;;;;;;2.92;54.26;99601.25;5065379;28;20218;-59
2022/02/14 08:25:26;;;;;;;10.98;4.35;;;;;;;2.72;54.02;99600.19;5064747;28;20033;-59
2022/02/14 08:27:52;;;;;;;10.23;4.28;;;;;;;3.07;53.73;99602.22;5063915;28;20226;-59
2022/02/14 08:30:17;;;;;;;6.60;4.40;;;;;;;2.81;53.62;99601.97;5064791;28;20033;-59
2022/02/14 08:32:44;;;;;;;7.05;4.50;;;;;;;2.53;54.04;99602.59;5063884;28;20033;-59
2022/02/14 08:35:10;;;;;;;9.20;4.38;;;;;;;2.60;55.13;99611.19;5064922;28;20033;-59
2022/02/14 08:37:36;;;;;;;20.90;10.88;;;;;;;2.82;55.31;99596.91;5065333;28;20210;-60
2022/02/14 08:40:02;;;;;;;7.57;4.57;;;;;;;3.22;54.28;99594.66;5064623;28;20028;-58
2022/02/14 08:42:29;;;;;;;7.50;4.57;;;;;;;3.62;52.00;99594.88;5064782;28;20092;-58
2022/02/14 08:44:56;;;;;;;11.15;5.05;;;;;;;4.30;53.02;99584.03;5065053;28;20025;-59
2022/02/14 08:47:21;;;;;;;6.93;4.40;;;;;;;4.41;50.96;99584.91;5064652;28;20040;-60
2022/02/14 08:49:47;;;;;;;10.07;4.88;;;;;;;4.12;51.45;99579.72;5056956;28;20218;-60
2022/02/14 08:52:13;;;;;;;7.97;4.60;;;;;;;4.39;50.57;99580.63;5064671;28;20079;-58
2022/02/14 08:54:38;;;;;;;6.68;4.60;;;;;;;4.59;49.67;99588.34;5063288;28;20037;-60
2022/02/14 08:57:04;;;;;;;6.30;4.50;;;;;;;4.51;52.16;99582.38;5064909;28;20032;-60
2022/02/14 08:59:29;;;;;;;6.63;4.50;;;;;;;4.52;50.67;99587.50;5064763;28;20326;-59
2022/02/14 09:01:56;;;;;;;8.68;5.22;;;;;;;3.97;49.80;99573.66;5062458;28;20280;-60
2022/02/14 09:04:23;;;;;;;7.57;4.88;;;;;;;3.89;52.42;99584.75;5060579;28;20101;-60
2022/02/14 09:06:48;;;;;;;5.97;4.93;;;;;;;4.36;52.73;99589.19;5064245;28;20029;-59
2022/02/14 09:09:14;;;;;;;7.82;5.55;;;;;;;4.63;52.00;99584.94;5059300;28;20317;-59
2022/02/14 09:11:41;;;;;;;6.20;4.47;;;;;;;4.99;49.47;99576.41;5064479;28;20051;-58
2022/02/14 09:14:08;;;;;;;7.15;4.97;;;;;;;4.66;50.28;99590.94;5064179;28;20302;-59
2022/02/14 09:16:34;;;;;;;8.18;4.80;;;;;;;4.84;50.22;99577.28;5064280;28;20044;-59
2022/02/14 09:19:00;;;;;;;7.82;5.18;;;;;;;4.88;50.62;99567.00;5064181;28;20111;-58
2022/02/14 09:21:25;;;;;;;7.00;4.80;;;;;;;4.48;51.55;99572.97;5063241;28;20037;-58
2022/02/14 09:23:51;;;;;;;8.23;5.57;;;;;;;4.03;51.25;99572.00;5063141;28;20047;-60
2022/02/14 09:26:17;;;;;;;8.27;4.82;;;;;;;3.76;50.95;99571.03;5064082;28;20025;-62
2022/02/14 09:28:43;;;;;;;8.90;4.95;;;;;;;3.69;52.45;99565.03;5064063;28;20037;-58
2022/02/14 09:31:09;;;;;;;8.10;4.97;;;;;;;3.72;53.54;99570.19;5063093;28;20248;-58
2022/02/14 09:33:34;;;;;;;8.10;4.90;;;;;;;3.69;52.49;99566.72;5060542;28;20100;-59
2022/02/14 09:36:00;;;;;;;16.33;8.88;;;;;;;3.61;53.73;99589.75;5063601;28;20025;-61
2022/02/14 09:38:26;;;;;;;9.55;5.30;;;;;;;3.79;53.52;99569.34;5063463;28;20088;-59
2022/02/14 09:40:54;;;;;;;12.82;5.90;;;;;;;4.24;51.86;99569.47;5062115;28;20028;-60
2022/02/14 09:43:19;;;;;;;8.00;5.78;;;;;;;4.17;52.93;99559.22;5064061;28;20028;-60
2022/02/14 09:45:45;;;;;;;11.43;5.90;;;;;;;3.67;54.04;99561.59;5063869;28;20226;-59
2022/02/14 09:48:13;;;;;;;8.63;5.78;;;;;;;3.47;53.29;99501.78;5054481;28;20029;-59
2022/02/14 09:50:41;;;;;;;7.93;5.47;;;;;;;3.73;53.75;99568.47;5063112;28;20047;-59
2022/02/14 09:53:10;;;;;;;8.30;5.60;;;;;;;3.36;53.19;99497.44;5062639;28;20024;-59
2022/02/14 09:55:37;;;;;;;10.23;6.57;;;;;;;3.47;55.06;99571.75;5063626;28;20040;-59
2022/02/14 09:58:04;;;;;;;10.57;6.30;;;;;;;3.59;54.85;99568.38;5063302;28;20310;-59
2022/02/14 10:00:30;;;;;;;8.88;6.05;;;;;;;3.41;54.16;99567.44;5063576;28;20032;-60
2022/02/14 10:03:15;;;;;;;11.88;6.65;;;;;;;3.63;55.96;99560.75;5063323;28;20045;-59
2022/02/14 10:05:46;;;;;;;10.00;6.10;;;;;;;3.51;54.76;99503.50;5062883;28;20033;-59
2022/02/14 10:08:35;;;;;;;9.88;5.70;;;;;;;3.59;55.67;99565.81;5063026;28;20028;-59
2022/02/14 10:11:16;;;;;;;11.55;6.10;;;;;;;3.52;55.31;99529.13;5058691;28;20094;-58
2022/02/14 10:13:50;;;;;;;6.60;5.63;;;;;;;3.79;55.36;99560.78;5052968;28;20031;-59
2022/02/14 10:16:18;;;;;;;11.77;5.78;;;;;;;3.72;53.92;99556.50;5063398;28;20450;-59
2022/02/14 10:18:44;;;;;;;8.07;5.82;;;;;;;3.64;54.94;99559.03;5062996;28;20044;-58
2022/02/14 10:21:17;;;;;;;8.50;5.90;;;;;;;3.47;54.91;99555.53;5063394;28;20035;-59
2022/02/14 10:24:01;;;;;;;9.98;5.90;;;;;;;3.47;55.01;99569.19;5063809;28;20023;-58
2022/02/14 10:26:42;;;;;;;10.43;6.13;;;;;;;3.56;55.41;99545.34;5046125;28;20021;-59
2022/02/14 10:29:20;;;;;;;10.87;6.47;;;;;;;3.50;55.65;99571.75;5063201;28;20028;-59
2022/02/14 10:31:50;;;;;;;13.80;6.32;;;;;;;3.38;55.87;99577.69;5063298;28;20438;-58
2022/02/14 10:34:25;;;;;;;9.15;6.57;;;;;;;3.27;55.10;99567.38;5063121;28;20067;-59
2022/02/14 10:36:58;;;;;;;8.77;6.70;;;;;;;3.23;56.45;99560.50;5079640;28;20325;-59
2022/02/14 10:39:27;;;;;;;9.30;5.90;;;;;;;3.25;56.54;99555.41;5042119;28;20025;-59
2022/02/14 10:41:59;;;;;;;10.57;6.88;;;;;;;3.35;56.96;99549.50;5060310;28;20047;-60
2022/02/14 10:47:20;;;;;;;11.77;6.70;;;;;;;2.97;56.45;99486.16;5059979;28;20330;-58
2022/02/14 10:50:04;;;;;;;11.32;7.15;;;;;;;3.22;55.27;99552.81;5062734;28;20107;-60
2022/02/14 10:52:38;;;;;;;10.20;6.97;;;;;;;3.16;56.81;99550.25;5062647;28;20099;-59
2022/02/14 10:55:10;;;;;;;9.73;7.38;;;;;;;2.83;55.98;99486.06;5062871;28;20310;-60
2022/02/14 10:57:41;;;;;;;8.73;6.60;;;;;;;3.20;55.90;99546.84;5062142;28;20028;-59
2022/02/14 11:00:16;;;;;;;10.88;7.13;;;;;;;2.98;57.40;99517.72;5062514;28;20025;-59
2022/02/14 11:02:44;;;;;;;12.50;7.53;;;;;;;3.05;57.15;99522.00;5062200;28;20047;-59
2022/02/14 11:05:11;;;;;;;9.77;6.70;;;;;;;3.14;56.46;99537.44;5062094;28;20056;-59
2022/02/14 11:07:38;;;;;;;20.08;12.48;;;;;;;3.14;56.75;99539.16;5057614;28;20028;-60
2022/02/14 11:10:12;;;;;;;9.27;7.20;;;;;;;3.30;56.28;99543.50;5062543;28;20025;-60
2022/02/14 11:12:59;;;;;;;9.52;6.82;;;;;;;3.36;56.79;99547.78;5062607;28;20025;-58
2022/02/14 11:15:25;;;;;;;12.82;6.85;;;;;;;3.47;55.86;99540.19;5062254;28;20033;-58
2022/02/14 11:18:18;;;;;;;12.15;6.90;;;;;;;3.25;55.97;99547.72;5062253;28;20301;-59
2022/02/14 11:20:46;;;;;;;11.30;7.57;;;;;;;3.18;56.24;99531.50;5060183;28;20076;-58
2022/02/14 11:23:15;;;;;;;9.93;7.32;;;;;;;3.31;58.08;99557.13;5062430;28;20025;-59
2022/02/14 11:25:54;;;;;;;11.00;7.28;;;;;;;3.02;56.57;99475.97;5062628;28;20029;-59
2022/02/14 11:28:30;;;;;;;13.57;7.28;;;;;;;3.30;57.31;99511.94;5061115;28;20032;-59
2022/02/14 11:31:17;;;;;;;12.30;7.65;;;;;;;3.38;56.97;99544.41;5062569;28;20056;-58
2022/02/14 11:33:52;;;;;;;14.35;7.60;;;;;;;3.36;55.88;99540.97;5061189;28;20225;-59
2022/02/14 11:36:18;;;;;;;12.52;7.22;;;;;;;3.11;56.53;99551.06;5056319;28;20103;-59
2022/02/14 11:38:47;;;;;;;9.40;7.05;;;;;;;3.32;57.75;99543.50;5052522;28;20032;-58
2022/02/14 11:41:43;;;;;;;12.32;7.40;;;;;;;3.37;57.95;99541.84;5053553;28;20033;-59